sensor_id;sensor_type;location;lat;lon;timestamp;P1;durP1;ratioP1;P2;durP2;ratioP2
75025;SDS011;63591;50.080;8.286;2022-09-21T00:01:57;3.33;;;1.20;;
75025;SDS011;63591;50.080;8.286;2022-09-21T00:04:22;5.53;;;1.30;;
75025;SDS011;63591;50.080;8.286;2022-09-21T00:06:47;3.30;;;1.20;;
75025;SDS011;63591;50.080;8.286;2022-09-21T00:09:13;2.97;;;1.10;;
75025;SDS011;63591;50.080;8.286;2022-09-21T00:11:38;3.63;;;1.20;;
75025;SDS011;63591;50.080;8.286;2022-09-21T00:14:08;3.87;;;1.27;;
75025;SDS011;63591;50.080;8.286;2022-09-21T00:16:36;3.08;;;1.15;;
75025;SDS011;63591;50.080;8.286;2022-09-21T00:19:02;3.67;;;1.23;;
75025;SDS011;63591;50.080;8.286;2022-09-21T00:21:28;4.70;;;1.30;;
75025;SDS011;63591;50.080;8.286;2022-09-21T00:23:54;3.27;;;1.27;;
75025;SDS011;63591;50.080;8.286;2022-09-21T00:26:23;3.88;;;1.10;;
75025;SDS011;63591;50.080;8.286;2022-09-21T00:28:54;4.15;;;1.25;;
75025;SDS011;63591;50.080;8.286;2022-09-21T00:31:23;3.40;;;1.30;;
75025;SDS011;63591;50.080;8.286;2022-09-21T00:33:49;3.13;;;1.10;;
75025;SDS011;63591;50.080;8.286;2022-09-21T00:36:16;3.33;;;1.40;;
75025;SDS011;63591;50.080;8.286;2022-09-21T00:38:43;3.45;;;1.30;;
75025;SDS011;63591;50.080;8.286;2022-09-21T00:41:10;3.42;;;1.30;;
75025;SDS011;63591;50.080;8.286;2022-09-21T00:43:38;3.05;;;1.10;;
75025;SDS011;63591;50.080;8.286;2022-09-21T00:46:20;3.70;;;1.00;;
75025;SDS011;63591;50.080;8.286;2022-09-21T00:48:51;3.33;;;1.27;;
75025;SDS011;63591;50.080;8.286;2022-09-21T00:51:17;3.50;;;1.17;;
75025;SDS011;63591;50.080;8.286;2022-09-21T00:53:42;3.20;;;1.10;;
75025;SDS011;63591;50.080;8.286;2022-09-21T00:56:08;3.47;;;1.20;;
75025;SDS011;63591;50.080;8.286;2022-09-21T00:58:37;3.55;;;1.10;;
75025;SDS011;63591;50.080;8.286;2022-09-21T01:01:07;3.33;;;1.20;;
75025;SDS011;63591;50.080;8.286;2022-09-21T01:03:34;3.37;;;1.10;;
75025;SDS011;63591;50.080;8.286;2022-09-21T01:06:00;2.80;;;1.10;;
75025;SDS011;63591;50.080;8.286;2022-09-21T01:08:26;3.23;;;1.30;;
75025;SDS011;63591;50.080;8.286;2022-09-21T01:28:12;3.65;;;1.23;;
75025;SDS011;63591;50.080;8.286;2022-09-21T01:30:48;4.65;;;1.30;;
75025;SDS011;63591;50.080;8.286;2022-09-21T01:33:27;3.22;;;1.15;;
75025;SDS011;63591;50.080;8.286;2022-09-21T01:36:00;3.30;;;1.27;;
75025;SDS011;63591;50.080;8.286;2022-09-21T01:38:33;3.35;;;1.10;;
75025;SDS011;63591;50.080;8.286;2022-09-21T01:41:13;2.95;;;1.10;;
75025;SDS011;63591;50.080;8.286;2022-09-21T01:43:43;4.78;;;1.20;;
75025;SDS011;63591;50.080;8.286;2022-09-21T01:46:14;3.60;;;1.20;;
75025;SDS011;63591;50.080;8.286;2022-09-21T01:48:43;3.00;;;1.20;;
75025;SDS011;63591;50.080;8.286;2022-09-21T01:51:12;3.10;;;1.10;;
75025;SDS011;63591;50.080;8.286;2022-09-21T01:53:41;3.00;;;1.17;;
75025;SDS011;63591;50.080;8.286;2022-09-21T01:56:12;4.03;;;1.27;;
75025;SDS011;63591;50.080;8.286;2022-09-21T01:58:54;3.58;;;1.20;;
75025;SDS011;63591;50.080;8.286;2022-09-21T02:01:28;4.37;;;1.20;;
75025;SDS011;63591;50.080;8.286;2022-09-21T02:03:58;4.13;;;1.42;;
75025;SDS011;63591;50.080;8.286;2022-09-21T02:06:28;3.33;;;1.10;;
75025;SDS011;63591;50.080;8.286;2022-09-21T02:08:54;3.38;;;1.20;;
75025;SDS011;63591;50.080;8.286;2022-09-21T02:11:20;4.70;;;1.23;;
75025;SDS011;63591;50.080;8.286;2022-09-21T02:13:47;3.35;;;1.10;;
75025;SDS011;63591;50.080;8.286;2022-09-21T02:19:11;2.87;;;1.17;;
75025;SDS011;63591;50.080;8.286;2022-09-21T02:21:56;3.25;;;1.13;;
75025;SDS011;63591;50.080;8.286;2022-09-21T02:24:42;3.30;;;1.10;;
75025;SDS011;63591;50.080;8.286;2022-09-21T02:27:12;3.20;;;1.15;;
75025;SDS011;63591;50.080;8.286;2022-09-21T02:29:52;3.50;;;1.20;;
75025;SDS011;63591;50.080;8.286;2022-09-21T02:32:29;3.10;;;1.00;;
75025;SDS011;63591;50.080;8.286;2022-09-21T02:35:10;2.92;;;1.10;;
75025;SDS011;63591;50.080;8.286;2022-09-21T02:37:49;3.35;;;1.10;;
75025;SDS011;63591;50.080;8.286;2022-09-21T02:40:22;3.40;;;1.10;;
75025;SDS011;63591;50.080;8.286;2022-09-21T02:42:55;3.10;;;1.23;;
75025;SDS011;63591;50.080;8.286;2022-09-21T02:45:26;3.43;;;1.13;;
75025;SDS011;63591;50.080;8.286;2022-09-21T02:48:02;3.63;;;1.13;;
75025;SDS011;63591;50.080;8.286;2022-09-21T02:50:39;3.17;;;1.10;;
75025;SDS011;63591;50.080;8.286;2022-09-21T02:53:08;6.32;;;1.33;;
75025;SDS011;63591;50.080;8.286;2022-09-21T02:55:35;4.28;;;1.45;;
75025;SDS011;63591;50.080;8.286;2022-09-21T02:58:03;7.13;;;1.30;;
75025;SDS011;63591;50.080;8.286;2022-09-21T03:00:32;5.40;;;1.20;;
75025;SDS011;63591;50.080;8.286;2022-09-21T03:02:59;3.53;;;1.15;;
75025;SDS011;63591;50.080;8.286;2022-09-21T03:05:25;8.73;;;1.30;;
75025;SDS011;63591;50.080;8.286;2022-09-21T03:07:51;3.72;;;1.40;;
75025;SDS011;63591;50.080;8.286;2022-09-21T03:10:16;5.73;;;1.43;;
75025;SDS011;63591;50.080;8.286;2022-09-21T03:12:42;6.80;;;1.40;;
75025;SDS011;63591;50.080;8.286;2022-09-21T03:15:08;6.00;;;1.33;;
75025;SDS011;63591;50.080;8.286;2022-09-21T03:17:34;13.50;;;1.48;;
75025;SDS011;63591;50.080;8.286;2022-09-21T03:19:59;4.77;;;1.40;;
75025;SDS011;63591;50.080;8.286;2022-09-21T03:22:25;4.93;;;1.47;;
75025;SDS011;63591;50.080;8.286;2022-09-21T03:24:50;9.10;;;1.77;;
75025;SDS011;63591;50.080;8.286;2022-09-21T03:27:16;8.80;;;1.33;;
75025;SDS011;63591;50.080;8.286;2022-09-21T03:29:44;6.78;;;1.33;;
75025;SDS011;63591;50.080;8.286;2022-09-21T03:32:10;7.20;;;1.30;;
75025;SDS011;63591;50.080;8.286;2022-09-21T03:34:35;5.67;;;1.43;;
75025;SDS011;63591;50.080;8.286;2022-09-21T03:37:01;6.60;;;1.50;;
75025;SDS011;63591;50.080;8.286;2022-09-21T03:39:29;8.27;;;1.40;;
75025;SDS011;63591;50.080;8.286;2022-09-21T03:41:54;5.80;;;1.35;;
75025;SDS011;63591;50.080;8.286;2022-09-21T03:44:21;6.33;;;1.47;;
75025;SDS011;63591;50.080;8.286;2022-09-21T03:46:47;9.40;;;1.42;;
75025;SDS011;63591;50.080;8.286;2022-09-21T03:49:12;8.10;;;1.40;;
75025;SDS011;63591;50.080;8.286;2022-09-21T03:51:37;5.03;;;1.43;;
75025;SDS011;63591;50.080;8.286;2022-09-21T03:54:04;5.80;;;1.30;;
75025;SDS011;63591;50.080;8.286;2022-09-21T03:56:30;4.93;;;1.37;;
75025;SDS011;63591;50.080;8.286;2022-09-21T03:58:55;5.10;;;1.33;;
75025;SDS011;63591;50.080;8.286;2022-09-21T04:01:20;9.07;;;1.30;;
75025;SDS011;63591;50.080;8.286;2022-09-21T04:03:46;5.77;;;1.37;;
75025;SDS011;63591;50.080;8.286;2022-09-21T04:06:11;4.73;;;1.50;;
75025;SDS011;63591;50.080;8.286;2022-09-21T04:08:38;6.30;;;1.30;;
75025;SDS011;63591;50.080;8.286;2022-09-21T04:11:10;5.88;;;1.23;;
75025;SDS011;63591;50.080;8.286;2022-09-21T04:13:36;8.25;;;1.45;;
75025;SDS011;63591;50.080;8.286;2022-09-21T04:16:02;9.90;;;1.40;;
75025;SDS011;63591;50.080;8.286;2022-09-21T04:18:27;10.13;;;1.80;;
75025;SDS011;63591;50.080;8.286;2022-09-21T04:20:52;5.73;;;1.40;;
75025;SDS011;63591;50.080;8.286;2022-09-21T04:23:18;9.40;;;1.40;;
75025;SDS011;63591;50.080;8.286;2022-09-21T04:25:44;6.82;;;1.60;;
75025;SDS011;63591;50.080;8.286;2022-09-21T04:28:12;9.30;;;1.33;;
75025;SDS011;63591;50.080;8.286;2022-09-21T04:30:38;8.57;;;1.43;;
75025;SDS011;63591;50.080;8.286;2022-09-21T04:33:04;8.40;;;1.42;;
75025;SDS011;63591;50.080;8.286;2022-09-21T04:35:29;5.20;;;1.27;;
75025;SDS011;63591;50.080;8.286;2022-09-21T04:37:55;7.70;;;1.50;;
75025;SDS011;63591;50.080;8.286;2022-09-21T04:40:20;7.63;;;1.83;;
75025;SDS011;63591;50.080;8.286;2022-09-21T04:42:49;4.27;;;1.30;;
75025;SDS011;63591;50.080;8.286;2022-09-21T04:45:19;6.85;;;1.60;;
75025;SDS011;63591;50.080;8.286;2022-09-21T04:47:44;5.90;;;1.42;;
75025;SDS011;63591;50.080;8.286;2022-09-21T04:50:10;6.00;;;1.20;;
75025;SDS011;63591;50.080;8.286;2022-09-21T04:52:35;6.47;;;1.30;;
75025;SDS011;63591;50.080;8.286;2022-09-21T04:55:01;5.83;;;1.30;;
75025;SDS011;63591;50.080;8.286;2022-09-21T04:57:26;5.63;;;1.60;;
75025;SDS011;63591;50.080;8.286;2022-09-21T04:59:51;4.27;;;1.50;;
75025;SDS011;63591;50.080;8.286;2022-09-21T05:02:17;4.80;;;1.20;;
75025;SDS011;63591;50.080;8.286;2022-09-21T05:04:42;3.63;;;1.30;;
75025;SDS011;63591;50.080;8.286;2022-09-21T05:07:07;3.60;;;1.40;;
75025;SDS011;63591;50.080;8.286;2022-09-21T05:09:32;5.60;;;1.53;;
75025;SDS011;63591;50.080;8.286;2022-09-21T05:12:16;5.07;;;1.70;;
75025;SDS011;63591;50.080;8.286;2022-09-21T05:14:42;5.17;;;1.47;;
75025;SDS011;63591;50.080;8.286;2022-09-21T05:17:08;6.18;;;1.40;;
75025;SDS011;63591;50.080;8.286;2022-09-21T05:19:34;4.78;;;1.40;;
75025;SDS011;63591;50.080;8.286;2022-09-21T05:22:00;5.57;;;1.30;;
75025;SDS011;63591;50.080;8.286;2022-09-21T05:24:25;4.23;;;1.30;;
75025;SDS011;63591;50.080;8.286;2022-09-21T05:26:50;5.17;;;1.40;;
75025;SDS011;63591;50.080;8.286;2022-09-21T05:29:16;4.90;;;1.80;;
75025;SDS011;63591;50.080;8.286;2022-09-21T05:31:45;5.72;;;2.00;;
75025;SDS011;63591;50.080;8.286;2022-09-21T05:39:48;4.68;;;2.00;;
75025;SDS011;63591;50.080;8.286;2022-09-21T05:42:14;5.43;;;1.90;;
75025;SDS011;63591;50.080;8.286;2022-09-21T05:44:39;7.47;;;2.10;;
75025;SDS011;63591;50.080;8.286;2022-09-21T05:49:49;5.53;;;2.20;;
75025;SDS011;63591;50.080;8.286;2022-09-21T06:04:09;4.80;;;2.10;;
75025;SDS011;63591;50.080;8.286;2022-09-21T06:06:36;11.27;;;3.22;;
75025;SDS011;63591;50.080;8.286;2022-09-21T06:09:02;8.02;;;2.55;;
75025;SDS011;63591;50.080;8.286;2022-09-21T06:11:28;5.97;;;2.27;;
75025;SDS011;63591;50.080;8.286;2022-09-21T06:13:53;8.47;;;2.63;;
75025;SDS011;63591;50.080;8.286;2022-09-21T06:16:19;6.40;;;2.30;;
75025;SDS011;63591;50.080;8.286;2022-09-21T06:18:44;7.17;;;2.13;;
75025;SDS011;63591;50.080;8.286;2022-09-21T06:21:09;6.60;;;2.30;;
75025;SDS011;63591;50.080;8.286;2022-09-21T06:23:35;4.47;;;2.10;;
75025;SDS011;63591;50.080;8.286;2022-09-21T06:26:00;5.90;;;2.27;;
75025;SDS011;63591;50.080;8.286;2022-09-21T06:28:26;5.50;;;2.00;;
75025;SDS011;63591;50.080;8.286;2022-09-21T06:30:52;5.90;;;2.10;;
75025;SDS011;63591;50.080;8.286;2022-09-21T06:33:19;6.03;;;2.25;;
75025;SDS011;63591;50.080;8.286;2022-09-21T06:35:54;5.73;;;1.80;;
75025;SDS011;63591;50.080;8.286;2022-09-21T06:38:21;4.13;;;1.70;;
75025;SDS011;63591;50.080;8.286;2022-09-21T06:40:48;6.90;;;2.10;;
75025;SDS011;63591;50.080;8.286;2022-09-21T06:43:14;5.18;;;1.95;;
75025;SDS011;63591;50.080;8.286;2022-09-21T06:45:39;5.67;;;2.00;;
75025;SDS011;63591;50.080;8.286;2022-09-21T06:48:05;4.97;;;1.80;;
75025;SDS011;63591;50.080;8.286;2022-09-21T06:50:30;5.07;;;1.87;;
75025;SDS011;63591;50.080;8.286;2022-09-21T06:52:58;4.50;;;1.88;;
75025;SDS011;63591;50.080;8.286;2022-09-21T06:55:24;4.72;;;1.63;;
75025;SDS011;63591;50.080;8.286;2022-09-21T06:57:50;4.00;;;1.70;;
75025;SDS011;63591;50.080;8.286;2022-09-21T07:00:15;3.80;;;1.85;;
75025;SDS011;63591;50.080;8.286;2022-09-21T07:02:42;5.57;;;1.90;;
75025;SDS011;63591;50.080;8.286;2022-09-21T07:05:08;3.85;;;1.60;;
75025;SDS011;63591;50.080;8.286;2022-09-21T07:07:33;4.63;;;1.80;;
75025;SDS011;63591;50.080;8.286;2022-09-21T07:10:00;3.63;;;1.70;;
75025;SDS011;63591;50.080;8.286;2022-09-21T07:12:27;3.80;;;1.60;;
75025;SDS011;63591;50.080;8.286;2022-09-21T07:14:52;3.88;;;1.80;;
75025;SDS011;63591;50.080;8.286;2022-09-21T07:17:18;3.77;;;1.77;;
75025;SDS011;63591;50.080;8.286;2022-09-21T07:19:43;3.70;;;1.80;;
75025;SDS011;63591;50.080;8.286;2022-09-21T07:22:09;3.88;;;1.60;;
75025;SDS011;63591;50.080;8.286;2022-09-21T07:24:34;3.70;;;1.57;;
75025;SDS011;63591;50.080;8.286;2022-09-21T07:27:00;4.03;;;1.70;;
75025;SDS011;63591;50.080;8.286;2022-09-21T07:29:25;3.67;;;1.60;;
75025;SDS011;63591;50.080;8.286;2022-09-21T07:31:50;4.10;;;1.83;;
75025;SDS011;63591;50.080;8.286;2022-09-21T07:34:16;3.63;;;1.50;;
75025;SDS011;63591;50.080;8.286;2022-09-21T07:36:41;4.03;;;1.65;;
75025;SDS011;63591;50.080;8.286;2022-09-21T07:39:10;7.53;;;1.60;;
75025;SDS011;63591;50.080;8.286;2022-09-21T07:41:35;4.10;;;1.58;;
75025;SDS011;63591;50.080;8.286;2022-09-21T07:44:01;4.00;;;1.60;;
75025;SDS011;63591;50.080;8.286;2022-09-21T07:46:27;3.53;;;1.60;;
75025;SDS011;63591;50.080;8.286;2022-09-21T07:48:53;3.70;;;1.60;;
75025;SDS011;63591;50.080;8.286;2022-09-21T07:51:19;3.97;;;1.50;;
75025;SDS011;63591;50.080;8.286;2022-09-21T07:53:44;4.00;;;1.50;;
75025;SDS011;63591;50.080;8.286;2022-09-21T07:56:11;3.50;;;1.50;;
75025;SDS011;63591;50.080;8.286;2022-09-21T07:58:38;3.55;;;1.50;;
75025;SDS011;63591;50.080;8.286;2022-09-21T08:01:23;3.80;;;1.38;;
75025;SDS011;63591;50.080;8.286;2022-09-21T08:03:50;4.00;;;1.60;;
75025;SDS011;63591;50.080;8.286;2022-09-21T08:06:16;3.53;;;1.50;;
75025;SDS011;63591;50.080;8.286;2022-09-21T08:08:41;3.50;;;1.50;;
75025;SDS011;63591;50.080;8.286;2022-09-21T08:11:07;3.65;;;1.42;;
75025;SDS011;63591;50.080;8.286;2022-09-21T08:13:33;4.77;;;1.87;;
75025;SDS011;63591;50.080;8.286;2022-09-21T08:15:59;3.38;;;1.40;;
75025;SDS011;63591;50.080;8.286;2022-09-21T08:18:26;3.87;;;1.50;;
75025;SDS011;63591;50.080;8.286;2022-09-21T08:20:52;3.42;;;1.20;;
75025;SDS011;63591;50.080;8.286;2022-09-21T08:23:21;3.63;;;1.50;;
75025;SDS011;63591;50.080;8.286;2022-09-21T08:25:46;4.20;;;1.40;;
75025;SDS011;63591;50.080;8.286;2022-09-21T08:28:12;3.90;;;1.55;;
75025;SDS011;63591;50.080;8.286;2022-09-21T08:30:38;3.63;;;1.50;;
75025;SDS011;63591;50.080;8.286;2022-09-21T08:33:04;3.38;;;1.45;;
75025;SDS011;63591;50.080;8.286;2022-09-21T08:35:30;3.22;;;1.38;;
75025;SDS011;63591;50.080;8.286;2022-09-21T08:37:56;3.13;;;1.30;;
75025;SDS011;63591;50.080;8.286;2022-09-21T08:40:21;4.20;;;1.67;;
75025;SDS011;63591;50.080;8.286;2022-09-21T08:43:04;5.72;;;1.92;;
75025;SDS011;63591;50.080;8.286;2022-09-21T08:45:35;9.02;;;2.30;;
75025;SDS011;63591;50.080;8.286;2022-09-21T08:48:07;11.07;;;2.05;;
75025;SDS011;63591;50.080;8.286;2022-09-21T08:50:45;7.67;;;2.07;;
75025;SDS011;63591;50.080;8.286;2022-09-21T08:55:42;5.47;;;1.98;;
75025;SDS011;63591;50.080;8.286;2022-09-21T08:58:21;6.03;;;1.97;;
75025;SDS011;63591;50.080;8.286;2022-09-21T09:00:50;6.63;;;1.90;;
75025;SDS011;63591;50.080;8.286;2022-09-21T09:03:28;4.75;;;1.70;;
75025;SDS011;63591;50.080;8.286;2022-09-21T09:06:23;4.55;;;1.48;;
75025;SDS011;63591;50.080;8.286;2022-09-21T09:11:43;5.30;;;1.50;;
75025;SDS011;63591;50.080;8.286;2022-09-21T09:14:27;6.35;;;1.80;;
75025;SDS011;63591;50.080;8.286;2022-09-21T09:19:54;4.53;;;1.80;;
75025;SDS011;63591;50.080;8.286;2022-09-21T09:22:31;7.18;;;1.60;;
75025;SDS011;63591;50.080;8.286;2022-09-21T09:25:04;5.20;;;1.60;;
75025;SDS011;63591;50.080;8.286;2022-09-21T09:27:40;6.20;;;1.70;;
75025;SDS011;63591;50.080;8.286;2022-09-21T09:38:45;4.68;;;1.60;;
75025;SDS011;63591;50.080;8.286;2022-09-21T09:44:20;3.80;;;1.50;;
75025;SDS011;63591;50.080;8.286;2022-09-21T09:49:35;4.85;;;1.52;;
75025;SDS011;63591;50.080;8.286;2022-09-21T09:52:10;5.15;;;1.48;;
75025;SDS011;63591;50.080;8.286;2022-09-21T09:54:37;5.70;;;1.70;;
75025;SDS011;63591;50.080;8.286;2022-09-21T09:57:03;3.60;;;1.50;;
75025;SDS011;63591;50.080;8.286;2022-09-21T10:04:52;4.63;;;1.60;;
75025;SDS011;63591;50.080;8.286;2022-09-21T10:07:19;3.50;;;1.30;;
75025;SDS011;63591;50.080;8.286;2022-09-21T10:09:44;3.67;;;1.57;;
75025;SDS011;63591;50.080;8.286;2022-09-21T10:12:28;6.83;;;1.80;;
75025;SDS011;63591;50.080;8.286;2022-09-21T10:14:55;4.27;;;1.47;;
75025;SDS011;63591;50.080;8.286;2022-09-21T10:17:24;4.85;;;1.50;;
75025;SDS011;63591;50.080;8.286;2022-09-21T10:19:57;5.10;;;1.70;;
75025;SDS011;63591;50.080;8.286;2022-09-21T10:22:27;4.10;;;1.30;;
75025;SDS011;63591;50.080;8.286;2022-09-21T10:24:53;5.95;;;1.70;;
75025;SDS011;63591;50.080;8.286;2022-09-21T10:27:27;5.47;;;1.60;;
75025;SDS011;63591;50.080;8.286;2022-09-21T10:29:54;5.35;;;1.60;;
75025;SDS011;63591;50.080;8.286;2022-09-21T10:32:23;5.87;;;1.80;;
75025;SDS011;63591;50.080;8.286;2022-09-21T10:37:38;6.15;;;2.60;;
75025;SDS011;63591;50.080;8.286;2022-09-21T10:40:24;6.33;;;2.30;;
75025;SDS011;63591;50.080;8.286;2022-09-21T10:42:53;5.25;;;2.35;;
75025;SDS011;63591;50.080;8.286;2022-09-21T10:45:29;6.00;;;2.05;;
75025;SDS011;63591;50.080;8.286;2022-09-21T10:50:37;4.65;;;2.00;;
75025;SDS011;63591;50.080;8.286;2022-09-21T10:55:37;8.63;;;2.33;;
75025;SDS011;63591;50.080;8.286;2022-09-21T10:58:09;5.75;;;1.83;;
75025;SDS011;63591;50.080;8.286;2022-09-21T11:00:49;4.13;;;1.80;;
75025;SDS011;63591;50.080;8.286;2022-09-21T11:06:01;5.50;;;1.60;;
75025;SDS011;63591;50.080;8.286;2022-09-21T11:08:52;6.75;;;1.73;;
75025;SDS011;63591;50.080;8.286;2022-09-21T11:14:43;4.95;;;1.60;;
75025;SDS011;63591;50.080;8.286;2022-09-21T11:17:25;4.38;;;1.50;;
75025;SDS011;63591;50.080;8.286;2022-09-21T11:23:09;5.80;;;1.58;;
75025;SDS011;63591;50.080;8.286;2022-09-21T11:28:46;5.03;;;1.83;;
75025;SDS011;63591;50.080;8.286;2022-09-21T11:44:54;4.47;;;1.42;;
75025;SDS011;63591;50.080;8.286;2022-09-21T11:56:16;4.72;;;1.77;;
75025;SDS011;63591;50.080;8.286;2022-09-21T11:58:50;3.63;;;1.48;;
75025;SDS011;63591;50.080;8.286;2022-09-21T12:07:15;4.10;;;1.52;;
75025;SDS011;63591;50.080;8.286;2022-09-21T12:12:28;3.85;;;1.10;;
75025;SDS011;63591;50.080;8.286;2022-09-21T12:15:02;5.23;;;1.50;;
75025;SDS011;63591;50.080;8.286;2022-09-21T12:17:35;3.38;;;1.27;;
75025;SDS011;63591;50.080;8.286;2022-09-21T12:20:35;4.40;;;1.40;;
75025;SDS011;63591;50.080;8.286;2022-09-21T12:23:22;3.65;;;1.20;;
75025;SDS011;63591;50.080;8.286;2022-09-21T12:25:55;3.63;;;1.10;;
75025;SDS011;63591;50.080;8.286;2022-09-21T12:33:57;4.55;;;1.40;;
75025;SDS011;63591;50.080;8.286;2022-09-21T12:36:34;4.18;;;1.50;;
75025;SDS011;63591;50.080;8.286;2022-09-21T12:39:19;4.60;;;1.30;;
75025;SDS011;63591;50.080;8.286;2022-09-21T12:45:04;4.38;;;1.20;;
75025;SDS011;63591;50.080;8.286;2022-09-21T12:47:42;4.18;;;1.30;;
75025;SDS011;63591;50.080;8.286;2022-09-21T12:50:34;3.83;;;1.25;;
75025;SDS011;63591;50.080;8.286;2022-09-21T12:53:17;4.80;;;1.10;;
75025;SDS011;63591;50.080;8.286;2022-09-21T12:55:49;4.27;;;1.30;;
75025;SDS011;63591;50.080;8.286;2022-09-21T13:04:11;4.90;;;1.40;;
75025;SDS011;63591;50.080;8.286;2022-09-21T13:06:47;3.45;;;1.33;;
75025;SDS011;63591;50.080;8.286;2022-09-21T13:09:32;6.30;;;2.13;;
75025;SDS011;63591;50.080;8.286;2022-09-21T13:12:13;4.88;;;2.15;;
75025;SDS011;63591;50.080;8.286;2022-09-21T13:14:55;5.40;;;1.75;;
75025;SDS011;63591;50.080;8.286;2022-09-21T13:17:27;5.18;;;2.35;;
75025;SDS011;63591;50.080;8.286;2022-09-21T13:19:59;4.78;;;2.17;;
75025;SDS011;63591;50.080;8.286;2022-09-21T13:22:42;4.90;;;2.00;;
75025;SDS011;63591;50.080;8.286;2022-09-21T13:27:56;5.45;;;1.90;;
75025;SDS011;63591;50.080;8.286;2022-09-21T13:30:41;5.22;;;2.10;;
75025;SDS011;63591;50.080;8.286;2022-09-21T13:33:30;4.88;;;2.22;;
75025;SDS011;63591;50.080;8.286;2022-09-21T13:36:00;5.60;;;2.03;;
75025;SDS011;63591;50.080;8.286;2022-09-21T13:38:31;4.93;;;1.98;;
75025;SDS011;63591;50.080;8.286;2022-09-21T13:41:02;4.50;;;1.80;;
75025;SDS011;63591;50.080;8.286;2022-09-21T13:43:59;4.28;;;1.90;;
75025;SDS011;63591;50.080;8.286;2022-09-21T13:54:25;4.32;;;1.58;;
75025;SDS011;63591;50.080;8.286;2022-09-21T13:56:59;4.03;;;1.80;;
75025;SDS011;63591;50.080;8.286;2022-09-21T13:59:28;5.38;;;1.90;;
75025;SDS011;63591;50.080;8.286;2022-09-21T14:01:56;3.53;;;1.60;;
75025;SDS011;63591;50.080;8.286;2022-09-21T14:04:24;4.10;;;1.50;;
75025;SDS011;63591;50.080;8.286;2022-09-21T14:06:52;4.03;;;1.50;;
75025;SDS011;63591;50.080;8.286;2022-09-21T14:09:23;4.88;;;1.65;;
75025;SDS011;63591;50.080;8.286;2022-09-21T14:12:02;3.70;;;1.47;;
75025;SDS011;63591;50.080;8.286;2022-09-21T14:14:37;3.90;;;1.60;;
75025;SDS011;63591;50.080;8.286;2022-09-21T14:19:59;3.72;;;1.40;;
75025;SDS011;63591;50.080;8.286;2022-09-21T14:25:14;5.77;;;1.63;;
75025;SDS011;63591;50.080;8.286;2022-09-21T14:27:50;4.00;;;1.40;;
75025;SDS011;63591;50.080;8.286;2022-09-21T14:30:21;3.63;;;1.40;;
75025;SDS011;63591;50.080;8.286;2022-09-21T14:35:24;3.50;;;1.40;;
75025;SDS011;63591;50.080;8.286;2022-09-21T14:41:14;3.63;;;1.40;;
75025;SDS011;63591;50.080;8.286;2022-09-21T14:43:47;3.20;;;1.30;;
75025;SDS011;63591;50.080;8.286;2022-09-21T14:51:37;4.15;;;1.45;;
75025;SDS011;63591;50.080;8.286;2022-09-21T14:54:22;5.90;;;1.30;;
75025;SDS011;63591;50.080;8.286;2022-09-21T15:13:04;5.20;;;1.10;;
75025;SDS011;63591;50.080;8.286;2022-09-21T15:15:36;5.70;;;1.10;;
75025;SDS011;63591;50.080;8.286;2022-09-21T15:18:17;4.10;;;0.90;;
75025;SDS011;63591;50.080;8.286;2022-09-21T15:20:55;4.28;;;1.00;;
75025;SDS011;63591;50.080;8.286;2022-09-21T15:23:32;5.30;;;0.90;;
75025;SDS011;63591;50.080;8.286;2022-09-21T15:26:11;8.98;;;1.10;;
75025;SDS011;63591;50.080;8.286;2022-09-21T15:28:47;4.13;;;0.77;;
75025;SDS011;63591;50.080;8.286;2022-09-21T15:31:18;4.05;;;0.82;;
75025;SDS011;63591;50.080;8.286;2022-09-21T15:33:44;3.00;;;0.70;;
75025;SDS011;63591;50.080;8.286;2022-09-21T15:36:12;3.57;;;0.90;;
75025;SDS011;63591;50.080;8.286;2022-09-21T15:38:46;3.90;;;0.80;;
75025;SDS011;63591;50.080;8.286;2022-09-21T15:41:18;3.08;;;0.80;;
75025;SDS011;63591;50.080;8.286;2022-09-21T15:43:59;4.40;;;0.80;;
75025;SDS011;63591;50.080;8.286;2022-09-21T15:46:40;3.63;;;0.80;;
75025;SDS011;63591;50.080;8.286;2022-09-21T15:49:11;4.17;;;0.80;;
75025;SDS011;63591;50.080;8.286;2022-09-21T15:51:39;3.42;;;0.80;;
75025;SDS011;63591;50.080;8.286;2022-09-21T15:54:54;2.97;;;0.75;;
75025;SDS011;63591;50.080;8.286;2022-09-21T15:56:56;3.15;;;0.90;;
75025;SDS011;63591;50.080;8.286;2022-09-21T15:59:23;2.80;;;0.90;;
75025;SDS011;63591;50.080;8.286;2022-09-21T16:01:49;3.93;;;0.80;;
75025;SDS011;63591;50.080;8.286;2022-09-21T16:04:19;2.90;;;0.70;;
75025;SDS011;63591;50.080;8.286;2022-09-21T16:06:47;2.93;;;0.73;;
75025;SDS011;63591;50.080;8.286;2022-09-21T16:11:48;2.83;;;0.77;;
75025;SDS011;63591;50.080;8.286;2022-09-21T16:14:14;3.53;;;0.95;;
75025;SDS011;63591;50.080;8.286;2022-09-21T16:17:19;3.00;;;0.88;;
75025;SDS011;63591;50.080;8.286;2022-09-21T16:22:23;3.00;;;0.80;;
75025;SDS011;63591;50.080;8.286;2022-09-21T16:25:01;3.05;;;0.90;;
75025;SDS011;63591;50.080;8.286;2022-09-21T16:27:28;2.88;;;0.80;;
75025;SDS011;63591;50.080;8.286;2022-09-21T16:29:56;3.08;;;0.85;;
75025;SDS011;63591;50.080;8.286;2022-09-21T16:34:51;3.90;;;0.80;;
75025;SDS011;63591;50.080;8.286;2022-09-21T16:39:56;4.97;;;1.15;;
75025;SDS011;63591;50.080;8.286;2022-09-21T16:42:23;4.18;;;1.00;;
75025;SDS011;63591;50.080;8.286;2022-09-21T16:44:52;4.55;;;1.17;;
75025;SDS011;63591;50.080;8.286;2022-09-21T16:47:20;6.70;;;1.33;;
75025;SDS011;63591;50.080;8.286;2022-09-21T16:49:55;6.85;;;1.35;;
75025;SDS011;63591;50.080;8.286;2022-09-21T16:52:25;6.22;;;1.60;;
75025;SDS011;63591;50.080;8.286;2022-09-21T16:54:52;5.50;;;1.30;;
75025;SDS011;63591;50.080;8.286;2022-09-21T16:57:20;5.72;;;1.40;;
75025;SDS011;63591;50.080;8.286;2022-09-21T16:59:46;5.93;;;1.50;;
75025;SDS011;63591;50.080;8.286;2022-09-21T17:02:13;6.93;;;1.70;;
75025;SDS011;63591;50.080;8.286;2022-09-21T17:04:39;7.10;;;1.70;;
75025;SDS011;63591;50.080;8.286;2022-09-21T17:07:04;5.20;;;1.67;;
75025;SDS011;63591;50.080;8.286;2022-09-21T17:09:31;6.17;;;1.53;;
75025;SDS011;63591;50.080;8.286;2022-09-21T17:12:02;5.80;;;1.40;;
75025;SDS011;63591;50.080;8.286;2022-09-21T17:14:31;5.82;;;1.42;;
75025;SDS011;63591;50.080;8.286;2022-09-21T17:16:59;5.82;;;1.40;;
75025;SDS011;63591;50.080;8.286;2022-09-21T17:19:45;6.28;;;1.42;;
75025;SDS011;63591;50.080;8.286;2022-09-21T17:22:13;5.97;;;1.50;;
75025;SDS011;63591;50.080;8.286;2022-09-21T17:24:50;4.70;;;1.38;;
75025;SDS011;63591;50.080;8.286;2022-09-21T17:27:19;4.97;;;1.30;;
75025;SDS011;63591;50.080;8.286;2022-09-21T17:29:46;5.30;;;1.45;;
75025;SDS011;63591;50.080;8.286;2022-09-21T17:32:16;5.80;;;1.50;;
75025;SDS011;63591;50.080;8.286;2022-09-21T17:34:47;4.23;;;1.40;;
75025;SDS011;63591;50.080;8.286;2022-09-21T17:37:25;4.88;;;1.50;;
75025;SDS011;63591;50.080;8.286;2022-09-21T17:39:51;5.13;;;1.60;;
75025;SDS011;63591;50.080;8.286;2022-09-21T17:42:18;5.78;;;1.40;;
75025;SDS011;63591;50.080;8.286;2022-09-21T17:47:30;4.05;;;1.38;;
75025;SDS011;63591;50.080;8.286;2022-09-21T17:50:05;15.98;;;2.42;;
75025;SDS011;63591;50.080;8.286;2022-09-21T17:52:33;7.90;;;1.93;;
75025;SDS011;63591;50.080;8.286;2022-09-21T17:55:17;12.45;;;2.20;;
75025;SDS011;63591;50.080;8.286;2022-09-21T17:57:47;10.38;;;2.15;;
75025;SDS011;63591;50.080;8.286;2022-09-21T18:00:23;8.93;;;2.03;;
75025;SDS011;63591;50.080;8.286;2022-09-21T18:03:24;8.73;;;2.33;;
75025;SDS011;63591;50.080;8.286;2022-09-21T18:05:52;7.17;;;2.40;;
75025;SDS011;63591;50.080;8.286;2022-09-21T18:08:21;13.70;;;2.67;;
75025;SDS011;63591;50.080;8.286;2022-09-21T18:19:28;6.53;;;2.53;;
75025;SDS011;63591;50.080;8.286;2022-09-21T18:22:00;6.20;;;2.60;;
75025;SDS011;63591;50.080;8.286;2022-09-21T18:24:35;6.05;;;2.42;;
75025;SDS011;63591;50.080;8.286;2022-09-21T18:27:01;6.37;;;2.53;;